Istra, Russia
Current Conditions -  °F | °C
As of 7:00 AM on Wednesday 26 Nov 2014 (Local Time) from UUEE Reporting Station
Light Snow Light Snow  
Wind Chill: 13°   Ceiling: 400
Heat Index: 21°   Visibility: 4mi
Dew Point: 19°   Wind: 7mph
Humidity: 93%   Direction: 220°SW
Pressure: 30.45"   Gusts: NA
Location:  55.92°N, 36.86°E
Report Text: UUEE 260400Z 22003MPS 6000 -SN OVC004 M06/M07 Q1031 7500006225150057 NOSIG
Loading
Personal Weather Stations






























Interactive Weather Map New forecast layout! Learn more

10-Day Weather Forecast

Advertisements
Track Severe Weather on mobile